createdAt,value
2019-04-11T00:01:53.170Z,5.57
2019-04-11T00:06:58.542Z,5.67
2019-04-11T00:12:03.533Z,5.60
2019-04-11T00:17:09.969Z,6.10
2019-04-11T00:22:15.317Z,6.30
2019-04-11T00:27:21.210Z,6.30
2019-04-11T00:32:27.480Z,5.30
2019-04-11T00:37:32.840Z,6.07
2019-04-11T00:42:38.827Z,5.73
2019-04-11T00:47:44.884Z,7.10
2019-04-11T00:52:50.250Z,6.67
2019-04-11T00:57:55.496Z,7.17
2019-04-11T01:03:03.366Z,6.60
2019-04-11T01:08:07.469Z,6.33
2019-04-11T01:13:14.106Z,6.83
2019-04-11T01:18:20.524Z,6.57
2019-04-11T01:23:27.013Z,6.53
2019-04-11T01:28:32.309Z,7.73
2019-04-11T01:33:37.989Z,8.00
2019-04-11T01:38:48.363Z,7.17
2019-04-11T01:44:00.950Z,7.47
2019-04-11T01:49:06.583Z,7.93
2019-04-11T01:54:11.564Z,7.03
2019-04-11T01:59:17.433Z,7.90
2019-04-11T02:04:38.469Z,8.80
2019-04-11T02:09:46.337Z,7.53
2019-04-11T02:14:50.256Z,8.77
2019-04-11T02:19:56.492Z,8.63
2019-04-11T02:25:10.215Z,9.13
2019-04-11T02:30:16.753Z,8.20
2019-04-11T02:35:22.689Z,9.40
2019-04-11T02:40:30.000Z,9.07
2019-04-11T02:45:45.386Z,8.60
2019-04-11T02:50:43.260Z,8.60
2019-04-11T02:55:51.976Z,9.40
2019-04-11T03:00:58.907Z,9.07
2019-04-11T03:06:04.405Z,9.50
2019-04-11T03:11:10.674Z,11.17
2019-04-11T03:16:29.363Z,11.00
2019-04-11T03:21:24.471Z,10.63
2019-04-11T03:26:30.982Z,10.63
2019-04-11T03:32:17.527Z,11.43
2019-04-11T03:37:19.002Z,10.53
2019-04-11T03:42:07.424Z,11.73
2019-04-11T03:47:11.151Z,12.00
2019-04-11T03:52:05.792Z,11.83
2019-04-11T03:57:13.345Z,12.60
2019-04-11T04:02:20.262Z,11.07
2019-04-11T04:07:27.696Z,11.27
2019-04-11T04:12:35.626Z,11.30
2019-04-11T04:18:00.817Z,11.57
2019-04-11T04:23:14.114Z,11.30
2019-04-11T04:28:21.527Z,12.30
2019-04-11T04:33:28.741Z,11.67
2019-04-11T04:38:33.838Z,12.20
2019-04-11T04:43:41.171Z,12.77
2019-04-11T04:48:47.747Z,13.67
2019-04-11T04:53:52.541Z,12.90
2019-04-11T04:58:59.771Z,13.33
2019-04-11T05:04:04.859Z,13.30
2019-04-11T05:09:12.611Z,14.37
2019-04-11T05:14:18.895Z,13.57
2019-04-11T05:19:23.933Z,13.17
2019-04-11T05:24:30.695Z,13.30
2019-04-11T05:29:35.752Z,13.73
2019-04-11T05:34:41.445Z,13.23
2019-04-11T05:39:46.560Z,13.53
2019-04-11T05:44:51.760Z,13.47
2019-04-11T05:50:06.508Z,12.80
2019-04-11T05:55:12.345Z,11.43
2019-04-11T06:00:28.497Z,12.13
2019-04-11T06:06:08.639Z,12.40
2019-04-11T06:11:43.182Z,12.10
2019-04-11T06:16:54.369Z,11.50
2019-04-11T06:22:04.591Z,10.30
2019-04-11T06:27:30.462Z,9.43
2019-04-11T06:32:54.350Z,10.13
2019-04-11T06:38:36.754Z,9.90
2019-04-11T06:43:47.971Z,10.27
2019-04-11T06:49:12.180Z,10.03
2019-04-11T06:54:25.330Z,9.60
2019-04-11T06:59:34.534Z,9.33
2019-04-11T07:04:44.060Z,8.50
2019-04-11T07:10:02.054Z,7.50
2019-04-11T07:15:31.541Z,6.27
2019-04-11T07:20:58.586Z,6.17
2019-04-11T07:26:35.135Z,6.37
2019-04-11T07:31:58.497Z,6.60
2019-04-11T07:37:26.109Z,5.93
2019-04-11T07:42:53.136Z,6.50
2019-04-11T07:48:08.759Z,5.60
2019-04-11T07:53:15.200Z,6.20
2019-04-11T07:58:22.386Z,7.03
2019-04-11T08:03:49.179Z,6.27
2019-04-11T08:09:10.442Z,5.87
2019-04-11T08:14:44.611Z,6.13
2019-04-11T08:20:08.074Z,6.23
2019-04-11T08:25:37.613Z,5.83
2019-04-11T08:30:57.364Z,5.03
2019-04-11T08:36:10.889Z,4.97
2019-04-11T08:41:31.635Z,3.50
2019-04-11T08:46:39.653Z,3.87
2019-04-11T08:51:44.994Z,2.10
2019-04-11T08:56:49.971Z,2.20
2019-04-11T09:01:55.997Z,2.47
2019-04-11T09:07:01.259Z,2.23
2019-04-11T09:12:10.275Z,2.80
2019-04-11T09:17:24.193Z,4.10
2019-04-11T09:22:51.197Z,2.30
2019-04-11T09:28:19.604Z,2.60
2019-04-11T09:33:53.261Z,3.20
2019-04-11T09:38:59.893Z,2.70
2019-04-11T09:49:40.586Z,2.77
2019-04-11T09:55:02.488Z,2.90
2019-04-11T10:00:28.882Z,2.67
2019-04-11T10:05:53.126Z,2.93
2019-04-11T10:11:26.163Z,6.13
2019-04-11T10:16:48.964Z,2.70
2019-04-11T10:21:59.044Z,3.00
2019-04-11T10:27:12.513Z,3.07
2019-04-11T10:32:19.391Z,3.47
2019-04-11T10:37:25.493Z,3.13
2019-04-11T10:42:31.249Z,3.20
2019-04-11T10:47:36.810Z,3.03
2019-04-11T10:52:46.735Z,3.33
2019-04-11T10:58:22.649Z,3.60
2019-04-11T11:03:32.421Z,3.03
2019-04-11T11:08:41.708Z,3.77
2019-04-11T11:14:14.965Z,3.50
2019-04-11T11:19:50.056Z,2.80
2019-04-11T11:25:02.325Z,3.00
2019-04-11T11:30:27.342Z,3.10
2019-04-11T11:35:40.970Z,3.03
2019-04-11T11:41:08.703Z,2.73
2019-04-11T11:46:31.574Z,3.67
2019-04-11T11:52:01.915Z,3.20
2019-04-11T11:57:23.068Z,3.80
2019-04-11T12:02:36.939Z,3.67
2019-04-11T12:07:47.320Z,3.30
2019-04-11T12:13:10.856Z,2.97
2019-04-11T12:18:44.985Z,3.33
2019-04-11T12:24:06.611Z,3.57
2019-04-11T12:29:19.920Z,3.80
2019-04-11T12:34:47.194Z,3.67
2019-04-11T12:40:10.203Z,3.00
2019-04-11T12:45:37.244Z,3.00
2019-04-11T12:50:59.873Z,3.33
2019-04-11T12:56:26.669Z,3.10
2019-04-11T13:01:59.916Z,3.20
2019-04-11T13:07:24.088Z,3.80
2019-04-11T13:13:00.017Z,3.50
2019-04-11T13:18:24.470Z,4.33
2019-04-11T13:23:41.523Z,4.93
2019-04-11T13:28:48.703Z,5.63
2019-04-11T13:33:56.821Z,5.40
2019-04-11T13:39:03.108Z,4.87
2019-04-11T13:44:14.723Z,4.70
2019-04-11T13:49:37.266Z,4.90
2019-04-11T13:54:50.639Z,4.00
2019-04-11T14:00:13.329Z,4.53
2019-04-11T14:05:19.918Z,4.70
2019-04-11T14:10:24.950Z,4.07
2019-04-11T14:15:31.057Z,4.20
2019-04-11T14:20:45.021Z,4.27
2019-04-11T14:26:18.048Z,4.10
2019-04-11T14:31:42.095Z,4.40
2019-04-11T14:36:56.559Z,4.30
2019-04-11T14:42:20.842Z,3.50
2019-04-11T14:47:42.830Z,3.53
2019-04-11T14:53:05.359Z,3.60
2019-04-11T14:58:41.388Z,3.50
2019-04-11T15:04:04.320Z,3.80
2019-04-11T15:09:28.853Z,3.23
2019-04-11T15:14:52.042Z,3.90
2019-04-11T15:20:16.045Z,3.20
2019-04-11T15:25:40.007Z,3.83
2019-04-11T15:30:48.401Z,3.50
2019-04-11T15:35:52.898Z,3.80
2019-04-11T15:40:59.536Z,2.97
2019-04-11T15:46:14.763Z,3.40
2019-04-11T15:51:52.204Z,3.63
2019-04-11T15:57:16.536Z,4.10
2019-04-11T16:02:39.511Z,4.07
2019-04-11T16:08:15.975Z,3.80
2019-04-11T16:13:34.536Z,3.50
2019-04-11T16:19:02.017Z,3.30
2019-04-11T16:24:12.188Z,4.00
2019-04-11T16:29:28.096Z,4.00
2019-04-11T16:34:55.718Z,4.00
2019-04-11T16:40:16.507Z,3.63
2019-04-11T16:45:29.336Z,3.70
2019-04-11T16:50:34.324Z,4.07
2019-04-11T16:55:42.034Z,4.13
2019-04-11T17:00:45.965Z,3.63
2019-04-11T17:06:03.574Z,3.63
2019-04-11T17:11:15.169Z,3.40
2019-04-11T17:16:21.370Z,2.73
2019-04-11T17:21:27.383Z,2.50
2019-04-11T17:26:32.534Z,2.73
2019-04-11T17:31:37.479Z,3.77
2019-04-11T17:36:42.514Z,3.93
2019-04-11T17:41:47.744Z,3.97
2019-04-11T17:46:56.385Z,3.67
2019-04-11T17:51:59.366Z,3.93
2019-04-11T17:57:04.381Z,4.00
2019-04-11T18:02:12.381Z,3.47
2019-04-11T18:07:17.760Z,3.67
2019-04-11T18:12:23.800Z,3.50
2019-04-11T18:17:32.695Z,4.17
2019-04-11T18:22:39.636Z,3.77
2019-04-11T18:27:44.635Z,3.80
2019-04-11T18:32:49.648Z,3.10
2019-04-11T18:37:54.775Z,3.33
2019-04-11T18:43:04.725Z,3.70
2019-04-11T18:48:10.907Z,3.90
2019-04-11T18:53:16.029Z,3.73
2019-04-11T18:58:21.030Z,3.77
2019-04-11T19:03:35.664Z,3.97
2019-04-11T19:08:33.245Z,3.90
2019-04-11T19:13:38.626Z,3.73
2019-04-11T19:18:47.238Z,4.20
2019-04-11T19:23:50.493Z,4.30
2019-04-11T19:28:55.758Z,4.57
2019-04-11T19:34:04.357Z,4.43
2019-04-11T19:39:13.677Z,4.20
2019-04-11T19:44:16.857Z,4.37
2019-04-11T19:49:22.618Z,4.43
2019-04-11T19:54:32.792Z,4.50
2019-04-11T19:59:34.295Z,4.07
2019-04-11T20:04:39.298Z,3.87
2019-04-11T20:09:44.283Z,3.83
2019-04-11T20:14:49.308Z,3.87
2019-04-11T20:20:01.250Z,3.77
2019-04-11T20:25:00.988Z,4.10
2019-04-11T20:30:06.923Z,3.60
2019-04-11T20:35:11.923Z,3.60
2019-04-11T20:40:18.796Z,3.33
2019-04-11T20:45:25.183Z,3.43
2019-04-11T20:50:31.151Z,3.63
2019-04-11T20:55:39.375Z,3.77
2019-04-11T21:00:50.926Z,3.80
2019-04-11T21:05:50.865Z,3.20
2019-04-11T21:10:55.851Z,3.63
2019-04-11T21:16:02.343Z,3.30
2019-04-11T21:21:09.711Z,3.10
2019-04-11T21:26:14.825Z,3.50
2019-04-11T21:31:20.742Z,3.70
2019-04-11T21:36:26.912Z,3.20
2019-04-11T21:41:35.983Z,3.57
2019-04-11T21:46:42.040Z,3.90
2019-04-11T21:51:45.699Z,3.33
2019-04-11T21:56:50.691Z,4.03
2019-04-11T22:01:55.975Z,3.83
2019-04-11T22:07:01.527Z,4.20
2019-04-11T22:12:08.739Z,3.50
2019-04-11T22:17:15.885Z,3.93
2019-04-11T22:22:20.597Z,3.23
2019-04-11T22:27:25.588Z,3.87
2019-04-11T22:32:30.593Z,4.40
2019-04-11T22:37:35.624Z,4.13
2019-04-11T22:42:40.622Z,4.43
2019-04-11T22:47:45.686Z,4.57
2019-04-11T22:52:50.711Z,3.93
2019-04-11T22:57:55.760Z,3.97
2019-04-11T23:03:08.482Z,4.30
2019-04-11T23:08:13.478Z,4.57
2019-04-11T23:13:18.468Z,4.83
2019-04-11T23:18:23.591Z,4.40
2019-04-11T23:23:28.611Z,4.63
2019-04-11T23:28:33.620Z,4.10
2019-04-11T23:33:38.751Z,4.60
2019-04-11T23:38:43.741Z,4.50
2019-04-11T23:43:50.020Z,4.70
2019-04-11T23:48:55.774Z,4.30
2019-04-11T23:54:00.739Z,4.97
2019-04-11T23:59:05.966Z,4.40
